createdAt,value
2023-04-10T00:03:12.807Z,54.33
2023-04-10T00:08:19.081Z,54.37
2023-04-10T00:13:25.169Z,52.23
2023-04-10T00:18:26.824Z,53.07
2023-04-10T00:23:34.738Z,54.50
2023-04-10T00:28:38.158Z,54.83
2023-04-10T00:33:44.358Z,56.90
2023-04-10T00:38:48.753Z,50.63
2023-04-10T00:43:56.931Z,50.30
2023-04-10T00:48:58.681Z,51.30
2023-04-10T00:54:03.548Z,49.67
2023-04-10T00:59:07.138Z,52.33
2023-04-10T01:04:11.778Z,59.17
2023-04-10T01:09:32.095Z,54.10
2023-04-10T01:15:28.278Z,54.83
2023-04-10T01:20:36.161Z,49.87
2023-04-10T01:25:44.995Z,56.00
2023-04-10T01:30:51.377Z,52.23
2023-04-10T01:35:56.493Z,52.63
2023-04-10T01:41:02.070Z,48.27
2023-04-10T01:46:05.384Z,55.63
2023-04-10T01:51:10.396Z,54.00
2023-04-10T01:56:12.823Z,53.00
2023-04-10T02:01:29.006Z,55.67
2023-04-10T02:06:46.096Z,53.60
2023-04-10T02:12:02.528Z,53.03
2023-04-10T02:17:07.163Z,53.97
2023-04-10T02:22:12.054Z,55.60
2023-04-10T02:27:13.736Z,59.03
2023-04-10T02:32:17.362Z,57.57
2023-04-10T02:37:23.726Z,57.07
2023-04-10T02:42:28.132Z,59.30
2023-04-10T02:47:33.554Z,62.67
2023-04-10T02:52:38.174Z,63.13
2023-04-10T02:57:40.994Z,64.50
2023-04-10T03:02:46.094Z,64.47
2023-04-10T03:07:53.989Z,62.70
2023-04-10T03:12:59.512Z,62.27
2023-04-10T03:18:01.324Z,65.23
2023-04-10T03:23:04.766Z,65.40
2023-04-10T03:28:06.535Z,65.93
2023-04-10T03:33:08.472Z,62.67
2023-04-10T03:38:12.755Z,65.93
2023-04-10T03:43:14.529Z,67.10
2023-04-10T03:48:20.891Z,65.20
2023-04-10T03:53:23.374Z,67.33
2023-04-10T03:58:29.658Z,64.10
2023-04-10T04:03:31.938Z,65.17
2023-04-10T04:08:36.334Z,70.80
2023-04-10T04:13:49.326Z,71.67
2023-04-10T04:19:09.467Z,65.07
2023-04-10T04:24:20.392Z,65.50
2023-04-10T04:29:36.100Z,66.03
2023-04-10T04:35:03.682Z,63.80
2023-04-10T04:40:26.948Z,63.03
2023-04-10T04:45:38.235Z,61.13
2023-04-10T04:50:43.601Z,61.87
2023-04-10T04:55:56.906Z,62.47
2023-04-10T05:01:27.898Z,68.57
2023-04-10T05:06:45.628Z,62.37
2023-04-10T05:12:06.036Z,60.07
2023-04-10T05:17:26.654Z,57.90
2023-04-10T05:22:40.592Z,62.60
2023-04-10T05:27:51.168Z,59.87
2023-04-10T05:33:15.090Z,60.00
2023-04-10T05:38:35.805Z,57.10
2023-04-10T05:43:48.513Z,58.13
2023-04-10T05:49:04.437Z,53.90
2023-04-10T05:54:38.006Z,54.97
2023-04-10T06:00:02.101Z,51.37
2023-04-10T06:05:16.030Z,50.33
2023-04-10T06:10:21.211Z,52.57
2023-04-10T06:15:29.474Z,50.37
2023-04-10T06:20:32.332Z,49.33
2023-04-10T06:25:36.520Z,47.13
2023-04-10T06:30:43.505Z,43.80
2023-04-10T06:35:45.603Z,43.67
2023-04-10T06:40:47.814Z,47.50
2023-04-10T06:45:49.609Z,45.93
2023-04-10T06:50:51.278Z,44.60
2023-04-10T06:55:55.466Z,41.63
2023-04-10T07:00:57.952Z,42.97
2023-04-10T07:06:03.463Z,40.30
2023-04-10T07:11:07.569Z,42.10
2023-04-10T07:16:12.502Z,40.27
2023-04-10T07:21:14.273Z,42.93
2023-04-10T07:26:16.501Z,39.37
2023-04-10T07:31:21.060Z,38.57
2023-04-10T07:36:27.043Z,38.90
2023-04-10T07:41:28.816Z,34.87
2023-04-10T07:46:30.514Z,30.60
2023-04-10T07:51:34.626Z,34.77
2023-04-10T07:56:36.391Z,35.20
2023-04-10T08:01:38.128Z,34.00
2023-04-10T08:06:39.869Z,31.17
2023-04-10T08:11:41.579Z,29.23
2023-04-10T08:16:43.304Z,29.93
2023-04-10T08:21:45.051Z,26.95
2023-04-10T08:26:49.669Z,30.15
2023-04-10T08:31:54.553Z,24.80
2023-04-10T08:36:59.625Z,24.65
2023-04-10T08:42:02.498Z,22.70
2023-04-10T08:47:05.974Z,21.45
2023-04-10T08:52:14.778Z,20.00
2023-04-10T08:57:20.904Z,18.75
2023-04-10T09:02:25.340Z,17.83
2023-04-10T09:07:29.756Z,17.48
2023-04-10T09:12:43.621Z,17.45
2023-04-10T09:17:55.616Z,14.57
2023-04-10T09:22:59.713Z,19.00
2023-04-10T09:28:09.730Z,18.08
2023-04-10T09:33:27.910Z,13.60
2023-04-10T09:38:36.741Z,13.20
2023-04-10T09:43:39.136Z,24.85
2023-04-10T09:48:55.001Z,13.32
2023-04-10T09:54:01.393Z,17.00
2023-04-10T09:59:04.858Z,11.85
2023-04-10T10:04:08.112Z,10.73
2023-04-10T10:09:09.921Z,12.63
2023-04-10T10:14:15.668Z,11.98
2023-04-10T10:19:31.538Z,9.35
2023-04-10T10:24:36.913Z,11.38
2023-04-10T10:29:41.172Z,11.80
2023-04-10T10:34:43.205Z,8.98
2023-04-10T10:39:57.175Z,7.35
2023-04-10T10:45:10.851Z,7.50
2023-04-10T10:50:14.805Z,7.60
2023-04-10T10:55:22.434Z,10.13
2023-04-10T11:00:26.026Z,9.43
2023-04-10T11:05:48.793Z,6.53
2023-04-10T11:11:03.658Z,8.90
2023-04-10T11:16:07.193Z,7.63
2023-04-10T11:21:10.715Z,8.23
2023-04-10T11:26:12.514Z,7.70
2023-04-10T11:31:22.080Z,9.00
2023-04-10T11:36:24.365Z,7.57
2023-04-10T11:41:34.277Z,10.55
2023-04-10T11:46:40.575Z,11.38
2023-04-10T11:51:46.384Z,9.63
2023-04-10T11:57:06.338Z,8.88
2023-04-10T12:02:15.261Z,9.43
2023-04-10T12:07:17.245Z,6.82
2023-04-10T12:12:20.589Z,6.00
2023-04-10T12:17:27.266Z,6.63
2023-04-10T12:22:29.058Z,14.55
2023-04-10T12:27:33.185Z,8.25
2023-04-10T12:32:37.170Z,6.82
2023-04-10T12:37:52.470Z,7.20
2023-04-10T12:42:54.253Z,10.10
2023-04-10T12:47:56.426Z,9.15
2023-04-10T12:53:09.426Z,8.55
2023-04-10T12:58:20.649Z,7.97
2023-04-10T13:03:27.663Z,7.90
2023-04-10T13:08:32.575Z,7.13
2023-04-10T13:13:36.878Z,9.82
2023-04-10T13:18:38.949Z,6.15
2023-04-10T13:23:47.010Z,6.30
2023-04-10T13:28:51.042Z,7.53
2023-04-10T13:33:55.944Z,6.30
2023-04-10T13:38:59.867Z,5.80
2023-04-10T13:44:04.260Z,8.45
2023-04-10T13:49:06.124Z,7.40
2023-04-10T13:54:12.313Z,6.70
2023-04-10T13:59:16.730Z,6.18
2023-04-10T14:04:18.997Z,7.88
2023-04-10T14:09:20.732Z,5.53
2023-04-10T14:14:25.293Z,7.72
2023-04-10T14:19:29.424Z,8.32
2023-04-10T14:24:31.126Z,6.32
2023-04-10T14:29:40.573Z,5.65
2023-04-10T14:34:46.910Z,6.63
2023-04-10T14:39:48.724Z,7.78
2023-04-10T14:44:53.419Z,10.00
2023-04-10T14:50:00.182Z,7.43
2023-04-10T14:55:02.215Z,6.80
2023-04-10T15:00:04.673Z,12.00
2023-04-10T15:05:07.027Z,7.57
2023-04-10T15:10:10.648Z,5.88
2023-04-10T15:15:17.654Z,6.72
2023-04-10T15:20:31.443Z,5.82
2023-04-10T15:25:33.995Z,6.43
2023-04-10T15:30:35.932Z,4.70
2023-04-10T15:35:37.789Z,4.40
2023-04-10T15:40:39.664Z,4.93
2023-04-10T15:45:41.598Z,6.63
2023-04-10T15:50:43.493Z,5.57
2023-04-10T15:55:45.209Z,7.47
2023-04-10T16:00:47.345Z,4.72
2023-04-10T16:05:53.581Z,5.53
2023-04-10T16:10:56.167Z,5.60
2023-04-10T16:15:57.970Z,4.22
2023-04-10T16:21:03.075Z,4.32
2023-04-10T16:26:05.332Z,4.65
2023-04-10T16:31:07.326Z,5.70
2023-04-10T16:36:16.704Z,5.45
2023-04-10T16:41:20.993Z,6.57
2023-04-10T16:46:22.926Z,8.05
2023-04-10T16:51:27.555Z,5.00
2023-04-10T16:56:31.624Z,3.55
2023-04-10T17:01:39.596Z,5.18
2023-04-10T17:06:41.384Z,3.78
2023-04-10T17:11:47.663Z,4.47
2023-04-10T17:16:49.899Z,2.97
2023-04-10T17:21:56.430Z,3.43
2023-04-10T17:27:02.989Z,5.53
2023-04-10T17:32:06.328Z,4.53
2023-04-10T17:37:10.564Z,3.35
2023-04-10T17:42:14.646Z,3.90
2023-04-10T17:47:18.877Z,3.20
2023-04-10T17:52:22.994Z,2.90
2023-04-10T17:57:25.310Z,4.57
2023-04-10T18:02:31.989Z,4.03
2023-04-10T18:07:36.104Z,4.28
2023-04-10T18:12:40.553Z,2.50
2023-04-10T18:17:42.312Z,2.17
2023-04-10T18:22:44.416Z,2.47
2023-04-10T18:28:04.586Z,4.95
2023-04-10T18:33:19.458Z,2.95
2023-04-10T18:38:26.144Z,3.63
2023-04-10T18:43:30.438Z,4.28
2023-04-10T18:48:34.683Z,4.93
2023-04-10T18:53:41.363Z,4.03
2023-04-10T18:58:43.038Z,5.07
2023-04-10T19:03:52.402Z,3.03
2023-04-10T19:08:55.907Z,8.70
2023-04-10T19:14:00.877Z,6.00
2023-04-10T19:19:02.736Z,10.18
2023-04-10T19:24:04.700Z,4.93
2023-04-10T19:29:08.816Z,4.72
2023-04-10T19:34:13.634Z,7.47
2023-04-10T19:39:18.261Z,6.18
2023-04-10T19:44:20.266Z,8.10
2023-04-10T19:49:22.013Z,7.13
2023-04-10T19:54:26.249Z,6.65
2023-04-10T19:59:28.792Z,11.05
2023-04-10T20:04:33.136Z,8.85
2023-04-10T20:09:34.973Z,10.02
2023-04-10T20:14:38.395Z,12.10
2023-04-10T20:19:40.553Z,6.38
2023-04-10T20:24:42.275Z,12.13
2023-04-10T20:29:44.039Z,10.73
2023-04-10T20:34:48.875Z,8.00
2023-04-10T20:39:53.608Z,8.83
2023-04-10T20:44:55.485Z,7.00
2023-04-10T20:49:57.205Z,11.50
2023-04-10T20:54:58.958Z,9.27
2023-04-10T21:00:03.290Z,8.33
2023-04-10T21:05:07.571Z,9.50
2023-04-10T21:10:09.369Z,10.73
2023-04-10T21:15:15.775Z,8.60
2023-04-10T21:20:22.195Z,9.87
2023-04-10T21:25:23.933Z,10.87
2023-04-10T21:30:25.664Z,9.27
2023-04-10T21:35:29.780Z,11.32
2023-04-10T21:40:34.363Z,10.35
2023-04-10T21:45:37.472Z,12.60
2023-04-10T21:50:39.781Z,13.10
2023-04-10T21:55:43.727Z,10.77
2023-04-10T22:00:47.261Z,8.90
2023-04-10T22:05:54.527Z,11.27
2023-04-10T22:10:56.271Z,11.77
2023-04-10T22:16:02.211Z,12.27
2023-04-10T22:21:11.314Z,13.43
2023-04-10T22:26:13.072Z,9.33
2023-04-10T22:31:18.246Z,9.23
2023-04-10T22:36:22.531Z,9.47
2023-04-10T22:41:29.562Z,9.53
2023-04-10T22:46:33.551Z,10.07
2023-04-10T22:51:35.314Z,9.40
2023-04-10T22:56:39.869Z,9.13
2023-04-10T23:01:41.675Z,12.87
2023-04-10T23:06:43.443Z,10.13
2023-04-10T23:11:46.140Z,11.63
2023-04-10T23:16:52.577Z,8.90
2023-04-10T23:21:59.089Z,13.70
2023-04-10T23:27:00.774Z,10.70
2023-04-10T23:32:04.949Z,11.50
2023-04-10T23:37:06.622Z,7.60
2023-04-10T23:42:08.277Z,11.30
2023-04-10T23:47:12.517Z,12.80
2023-04-10T23:52:14.166Z,11.87
2023-04-10T23:57:15.848Z,11.80
